Time;durP1;ratioP1;P1;durP2;ratioP2;P2;SDS_P1;SDS_P2;PMS_P1;PMS_P2;Temp;Humidity;BMP_temperature;BMP_pressure;BME280_temperature;BME280_humidity;BME280_pressure;Samples;Min_cycle;Max_cycle;Signal;HPM_P1;HPM_P2
2024/03/17 00:00:40;;;;;;;6.07;2.13;;;5.50;99.90;;;;;;5001818;28;20542;-67
2024/03/17 00:03:08;;;;;;;11.30;2.97;;;5.40;99.90;;;;;;4999803;28;20966;-68
2024/03/17 00:05:35;;;;;;;12.07;2.50;;;5.40;99.90;;;;;;5000249;28;20484;-68
2024/03/17 00:08:04;;;;;;;6.20;2.00;;;5.40;99.90;;;;;;5005169;28;20465;-67
2024/03/17 00:10:31;;;;;;;10.13;2.50;;;5.40;99.90;;;;;;4998193;28;21301;-67
2024/03/17 00:12:58;;;;;;;8.23;2.80;;;5.40;99.90;;;;;;5004495;28;20481;-67
2024/03/17 00:15:25;;;;;;;5.43;1.90;;;5.30;99.90;;;;;;5001534;28;21029;-68
2024/03/17 00:17:52;;;;;;;13.00;2.50;;;5.30;99.90;;;;;;5004550;28;20476;-67
2024/03/17 00:20:19;;;;;;;6.87;2.60;;;5.30;99.90;;;;;;5002717;28;20491;-67
2024/03/17 00:22:48;;;;;;;7.63;2.60;;;5.30;99.90;;;;;;5004983;28;20472;-67
2024/03/17 00:25:15;;;;;;;11.00;2.67;;;5.30;99.90;;;;;;5005529;28;20538;-67
2024/03/17 00:27:44;;;;;;;14.87;3.03;;;5.30;99.90;;;;;;5004771;28;20472;-67
2024/03/17 00:30:12;;;;;;;6.87;2.20;;;5.30;99.90;;;;;;4996940;28;21068;-68
2024/03/17 00:32:40;;;;;;;8.10;2.43;;;5.20;99.90;;;;;;5001810;28;21518;-68
2024/03/17 00:35:07;;;;;;;9.43;2.63;;;5.20;99.90;;;;;;5001584;28;20488;-68
2024/03/17 00:37:34;;;;;;;7.53;2.33;;;5.20;99.90;;;;;;5004888;28;20468;-68
2024/03/17 00:40:01;;;;;;;10.67;2.20;;;5.20;99.90;;;;;;5002268;28;20546;-68
2024/03/17 00:42:30;;;;;;;8.87;2.17;;;5.20;99.90;;;;;;5006090;28;20973;-68
2024/03/17 00:44:56;;;;;;;10.37;5.07;;;5.20;99.90;;;;;;5006318;28;21232;-68
2024/03/17 00:47:23;;;;;;;11.93;2.73;;;5.20;99.90;;;;;;5002315;28;20475;-68
2024/03/17 00:49:52;;;;;;;7.83;2.83;;;5.20;99.90;;;;;;5005673;28;20483;-68
2024/03/17 00:52:19;;;;;;;10.20;3.80;;;5.20;99.90;;;;;;5002086;28;20483;-68
2024/03/17 00:54:47;;;;;;;11.97;3.13;;;5.20;99.90;;;;;;5005191;28;20492;-68
2024/03/17 00:57:14;;;;;;;10.80;2.90;;;5.20;99.90;;;;;;4996834;28;20897;-68
2024/03/17 00:59:43;;;;;;;15.07;2.83;;;5.30;99.90;;;;;;5005563;28;20477;-68
2024/03/17 01:02:10;;;;;;;7.60;2.50;;;5.30;99.90;;;;;;5003990;28;20496;-68
2024/03/17 01:04:39;;;;;;;8.70;2.50;;;5.30;99.90;;;;;;5003477;28;20471;-68
2024/03/17 01:07:06;;;;;;;5.40;2.20;;;5.30;99.90;;;;;;5001009;28;20476;-68
2024/03/17 01:09:33;;;;;;;10.50;3.03;;;5.30;99.90;;;;;;5004851;28;20542;-67
2024/03/17 01:12:00;;;;;;;7.50;2.60;;;5.30;99.90;;;;;;5006657;28;20492;-68
2024/03/17 01:14:27;;;;;;;9.97;2.73;;;5.30;99.90;;;;;;5001615;28;20840;-68
2024/03/17 01:16:55;;;;;;;6.63;2.23;;;5.30;99.90;;;;;;5005384;28;20487;-68
2024/03/17 01:19:22;;;;;;;8.20;2.00;;;5.30;99.90;;;;;;4999868;28;20530;-67
2024/03/17 01:21:48;;;;;;;6.33;2.10;;;5.30;99.90;;;;;;4997918;28;20492;-68
2024/03/17 01:24:16;;;;;;;7.37;2.30;;;5.30;99.90;;;;;;4998087;28;20529;-68
2024/03/17 01:26:42;;;;;;;4.23;2.00;;;5.30;99.90;;;;;;4996484;28;20468;-68
2024/03/17 01:29:09;;;;;;;8.80;2.07;;;5.30;99.90;;;;;;4998780;28;22172;-68
2024/03/17 01:31:36;;;;;;;12.03;3.00;;;5.30;99.90;;;;;;4997741;28;20487;-68
2024/03/17 01:34:04;;;;;;;6.90;2.83;;;5.30;99.90;;;;;;4998736;28;20472;-68
2024/03/17 01:36:30;;;;;;;6.60;2.43;;;5.30;99.90;;;;;;4999634;28;20491;-68
2024/03/17 01:38:57;;;;;;;7.63;2.20;;;5.30;99.90;;;;;;5001747;28;20836;-68
2024/03/17 01:41:23;;;;;;;5.50;2.23;;;5.20;99.90;;;;;;5001418;28;21113;-68
2024/03/17 01:43:50;;;;;;;9.33;2.37;;;5.20;99.90;;;;;;5001188;28;20468;-68
2024/03/17 01:46:17;;;;;;;9.50;2.53;;;5.20;99.90;;;;;;5000384;28;21044;-68
2024/03/17 01:48:45;;;;;;;6.90;2.40;;;5.10;99.90;;;;;;5004189;28;21001;-68
2024/03/17 01:51:15;;;;;;;7.73;2.60;;;5.10;99.90;;;;;;4996743;28;20488;-68
2024/03/17 01:53:43;;;;;;;8.00;2.43;;;5.10;99.90;;;;;;4990648;28;20487;-68
2024/03/17 01:56:11;;;;;;;7.40;2.10;;;5.00;99.90;;;;;;5000291;28;20566;-68
2024/03/17 01:58:38;;;;;;;5.13;2.30;;;5.00;99.90;;;;;;5001859;28;20530;-68
2024/03/17 02:01:04;;;;;;;5.57;2.30;;;5.00;99.90;;;;;;4995269;28;20570;-68
2024/03/17 02:03:31;;;;;;;7.00;2.03;;;5.00;99.90;;;;;;5005047;28;21032;-67
2024/03/17 02:05:58;;;;;;;6.13;2.37;;;5.00;99.90;;;;;;5004997;28;20475;-68
2024/03/17 02:08:26;;;;;;;11.20;2.60;;;5.00;99.90;;;;;;4999076;28;20471;-68
2024/03/17 02:10:53;;;;;;;7.93;2.30;;;4.90;99.90;;;;;;5002645;28;21008;-68
2024/03/17 02:13:21;;;;;;;6.93;2.20;;;4.90;99.90;;;;;;5003618;28;20477;-68
2024/03/17 02:15:47;;;;;;;6.67;2.20;;;5.00;99.90;;;;;;5003585;28;20495;-68
2024/03/17 02:18:14;;;;;;;7.90;2.30;;;4.90;99.90;;;;;;5003885;28;20575;-68
2024/03/17 02:20:57;;;;;;;7.67;2.87;;;4.90;99.90;;;;;;5000722;28;20534;-68
2024/03/17 02:23:27;;;;;;;7.23;2.20;;;4.90;99.90;;;;;;4998970;28;20480;-68
2024/03/17 02:25:53;;;;;;;8.03;2.50;;;4.90;99.90;;;;;;5001932;28;20469;-68
2024/03/17 02:28:20;;;;;;;7.33;2.27;;;4.80;99.90;;;;;;5003935;28;20472;-68
2024/03/17 02:30:46;;;;;;;4.93;2.40;;;4.90;99.90;;;;;;5001719;28;20503;-68
2024/03/17 02:33:13;;;;;;;10.20;2.60;;;4.90;99.90;;;;;;5003564;28;20473;-68
2024/03/17 02:35:39;;;;;;;6.47;1.93;;;4.80;99.90;;;;;;5002728;28;20492;-68
2024/03/17 02:38:07;;;;;;;5.67;2.10;;;4.80;99.90;;;;;;4998162;28;20472;-68
2024/03/17 02:40:35;;;;;;;7.37;2.03;;;4.80;99.90;;;;;;5000554;28;20500;-68
2024/03/17 02:43:02;;;;;;;6.40;1.83;;;4.80;99.90;;;;;;5001138;28;20475;-68
2024/03/17 02:45:29;;;;;;;6.33;2.00;;;4.80;99.90;;;;;;4998871;28;20962;-68
2024/03/17 02:47:56;;;;;;;7.43;2.73;;;4.80;99.90;;;;;;4998148;28;20474;-68
2024/03/17 02:50:23;;;;;;;8.03;2.73;;;4.80;99.90;;;;;;4997020;28;20589;-68
2024/03/17 02:52:50;;;;;;;9.90;2.83;;;4.80;99.90;;;;;;5000238;28;20537;-68
2024/03/17 02:55:17;;;;;;;6.37;2.07;;;4.70;99.90;;;;;;5002029;28;20488;-68
2024/03/17 02:57:46;;;;;;;8.53;2.47;;;4.70;99.90;;;;;;5000030;28;20472;-68
2024/03/17 03:00:13;;;;;;;7.97;3.53;;;4.70;99.90;;;;;;4998173;28;20484;-68
2024/03/17 03:02:40;;;;;;;5.40;2.63;;;4.70;99.90;;;;;;5000204;28;20467;-68
2024/03/17 03:05:08;;;;;;;8.53;1.97;;;4.70;99.90;;;;;;4997345;28;20461;-68
2024/03/17 03:07:35;;;;;;;8.13;2.00;;;4.70;99.90;;;;;;5000342;28;20480;-68
2024/03/17 03:10:02;;;;;;;4.63;2.33;;;4.60;99.90;;;;;;4995531;28;21342;-68
2024/03/17 03:12:29;;;;;;;6.70;2.47;;;4.60;99.90;;;;;;5000036;28;20465;-67
2024/03/17 03:14:57;;;;;;;7.40;2.33;;;4.60;99.90;;;;;;4998439;28;20472;-67
2024/03/17 03:17:24;;;;;;;7.47;1.90;;;4.50;99.90;;;;;;4998511;28;20998;-67
2024/03/17 03:19:52;;;;;;;6.50;2.37;;;4.50;99.90;;;;;;5003522;28;20857;-67
2024/03/17 03:22:21;;;;;;;6.30;2.60;;;4.50;99.90;;;;;;4999833;28;20492;-68
2024/03/17 03:24:48;;;;;;;6.17;2.17;;;4.50;99.90;;;;;;4998411;28;20480;-68
2024/03/17 03:27:15;;;;;;;9.50;2.50;;;4.50;99.90;;;;;;4998844;28;20479;-68
2024/03/17 03:29:43;;;;;;;6.00;2.40;;;4.40;99.90;;;;;;5007692;28;20910;-68
2024/03/17 03:32:11;;;;;;;5.93;2.10;;;4.40;99.90;;;;;;5004953;28;20908;-68
2024/03/17 03:34:38;;;;;;;10.83;3.03;;;4.40;99.90;;;;;;5004115;28;20472;-68
2024/03/17 03:37:07;;;;;;;7.30;3.13;;;4.40;99.90;;;;;;5004084;28;20930;-68
2024/03/17 03:39:36;;;;;;;8.00;2.30;;;4.30;99.90;;;;;;5001194;28;20554;-68
2024/03/17 03:42:03;;;;;;;4.13;2.20;;;4.30;99.90;;;;;;4987161;28;20516;-68
2024/03/17 03:44:30;;;;;;;5.57;1.97;;;4.30;99.90;;;;;;4984625;28;20480;-68
2024/03/17 03:46:58;;;;;;;7.60;2.13;;;4.30;99.90;;;;;;4980982;28;20523;-68
2024/03/17 03:49:26;;;;;;;9.07;2.50;;;4.20;99.90;;;;;;4987395;28;20535;-68
2024/03/17 03:51:54;;;;;;;7.57;2.50;;;4.20;99.90;;;;;;5002542;28;20481;-68
2024/03/17 03:54:21;;;;;;;5.47;2.40;;;4.10;99.90;;;;;;5001812;28;20471;-68
2024/03/17 03:56:48;;;;;;;10.57;2.53;;;4.20;99.90;;;;;;5003862;28;20489;-68
2024/03/17 03:59:15;;;;;;;5.37;2.03;;;4.10;99.90;;;;;;5000994;28;20539;-68
2024/03/17 04:01:42;;;;;;;7.57;2.77;;;4.10;99.90;;;;;;5000524;28;20495;-68
2024/03/17 04:04:09;;;;;;;5.30;2.23;;;4.10;99.90;;;;;;5001029;28;20472;-68
2024/03/17 04:06:38;;;;;;;8.13;2.10;;;4.00;99.90;;;;;;5000052;28;20473;-68
2024/03/17 04:09:06;;;;;;;6.53;2.20;;;4.10;99.90;;;;;;5002009;28;20468;-68
2024/03/17 04:11:34;;;;;;;7.60;2.73;;;4.10;99.90;;;;;;4995630;28;21047;-68
2024/03/17 04:14:01;;;;;;;6.00;2.60;;;4.10;99.90;;;;;;5003482;28;20471;-68
2024/03/17 04:16:29;;;;;;;5.70;3.43;;;4.10;99.90;;;;;;5000337;28;20504;-68
2024/03/17 04:18:58;;;;;;;9.87;2.43;;;4.10;99.90;;;;;;5004660;28;20476;-68
2024/03/17 04:21:25;;;;;;;8.87;2.53;;;4.10;99.90;;;;;;5003372;28;20479;-68
2024/03/17 04:23:54;;;;;;;6.20;2.30;;;4.20;99.90;;;;;;5001099;28;20540;-68
2024/03/17 04:26:21;;;;;;;12.17;3.63;;;4.20;99.90;;;;;;5000469;28;20464;-68
2024/03/17 04:28:48;;;;;;;7.30;2.60;;;4.20;99.90;;;;;;5006021;28;20460;-68
2024/03/17 04:31:15;;;;;;;8.70;2.70;;;4.20;99.90;;;;;;5003417;28;20487;-68
2024/03/17 04:33:42;;;;;;;4.70;2.30;;;4.20;99.90;;;;;;5004672;28;20460;-68
2024/03/17 04:36:09;;;;;;;6.50;2.30;;;4.20;99.90;;;;;;5006822;28;20989;-68
2024/03/17 04:38:37;;;;;;;6.50;2.70;;;4.30;99.90;;;;;;5003221;28;20468;-68
2024/03/17 04:41:08;;;;;;;5.80;2.70;;;4.30;99.90;;;;;;5002554;28;20574;-68
2024/03/17 04:43:35;;;;;;;8.13;2.80;;;4.30;99.90;;;;;;5006986;28;20896;-68
2024/03/17 04:46:04;;;;;;;8.23;3.23;;;4.30;99.90;;;;;;5000900;28;20468;-68
2024/03/17 04:48:31;;;;;;;8.07;3.03;;;4.30;99.90;;;;;;5004368;28;20467;-68
2024/03/17 04:50:59;;;;;;;10.00;2.93;;;4.30;99.90;;;;;;5005364;28;20488;-68
2024/03/17 04:53:26;;;;;;;12.73;4.40;;;4.40;99.90;;;;;;5004495;28;20468;-68
2024/03/17 04:56:05;;;;;;;6.93;2.87;;;4.40;99.90;;;;;;5004826;28;21146;-68
2024/03/17 04:58:32;;;;;;;6.13;2.80;;;4.40;99.90;;;;;;5020929;28;20464;-68
2024/03/17 05:01:05;;;;;;;11.63;3.27;;;4.50;99.90;;;;;;4999640;28;21021;-68
2024/03/17 05:03:33;;;;;;;5.53;2.87;;;4.50;99.90;;;;;;5000105;28;20488;-68
2024/03/17 05:06:03;;;;;;;8.73;3.17;;;4.50;99.90;;;;;;5004982;28;20507;-68
2024/03/17 05:08:31;;;;;;;4.87;3.10;;;4.50;99.90;;;;;;5003203;28;20843;-68
2024/03/17 05:10:59;;;;;;;11.43;3.93;;;4.50;99.90;;;;;;5003534;28;21520;-68
2024/03/17 05:13:28;;;;;;;4.90;2.93;;;4.50;99.90;;;;;;5004886;28;20477;-68
2024/03/17 05:15:55;;;;;;;7.67;3.33;;;4.50;99.90;;;;;;5003610;28;20488;-68
2024/03/17 05:18:25;;;;;;;9.43;3.33;;;4.50;99.90;;;;;;5000190;28;20472;-68
2024/03/17 05:20:59;;;;;;;7.37;3.23;;;4.50;99.90;;;;;;5004585;28;20495;-68
2024/03/17 05:23:28;;;;;;;6.77;3.30;;;4.50;99.90;;;;;;5002322;28;20475;-68
2024/03/17 05:25:55;;;;;;;7.23;3.13;;;4.50;99.90;;;;;;5005400;28;20506;-68
2024/03/17 05:28:22;;;;;;;9.57;4.20;;;4.50;99.90;;;;;;5003802;28;20530;-68
2024/03/17 05:30:52;;;;;;;6.83;3.10;;;4.50;99.90;;;;;;5003290;28;20491;-68
2024/03/17 05:33:21;;;;;;;7.37;2.87;;;4.40;99.90;;;;;;5006359;28;20539;-68
2024/03/17 05:35:52;;;;;;;6.07;3.63;;;4.40;99.90;;;;;;5001623;28;20476;-68
2024/03/17 05:38:21;;;;;;;5.17;3.00;;;4.40;99.90;;;;;;5000717;28;20476;-68
2024/03/17 05:40:55;;;;;;;4.93;2.93;;;4.30;99.90;;;;;;5004719;28;20546;-68
2024/03/17 05:43:23;;;;;;;6.13;2.90;;;4.30;99.90;;;;;;5004494;28;20468;-68
2024/03/17 05:45:52;;;;;;;5.40;3.40;;;4.30;99.90;;;;;;4999984;28;20570;-68
2024/03/17 05:48:19;;;;;;;6.50;2.87;;;4.20;99.90;;;;;;5017505;28;20581;-68
2024/03/17 05:50:46;;;;;;;7.87;3.03;;;4.20;99.90;;;;;;5002819;28;20483;-68
2024/03/17 05:53:13;;;;;;;6.00;3.13;;;4.20;99.90;;;;;;5003718;28;20475;-68
2024/03/17 05:55:42;;;;;;;6.80;3.00;;;4.20;99.90;;;;;;5003523;28;20519;-68
2024/03/17 05:58:10;;;;;;;6.70;3.07;;;4.10;99.90;;;;;;5001846;28;20481;-68
2024/03/17 06:00:37;;;;;;;6.90;3.17;;;4.10;99.90;;;;;;5001005;28;20492;-68
2024/03/17 06:03:07;;;;;;;7.47;3.23;;;4.10;99.90;;;;;;5006053;28;20483;-68
2024/03/17 06:05:34;;;;;;;6.80;3.47;;;4.10;99.90;;;;;;5002397;28;20495;-68
2024/03/17 06:08:02;;;;;;;5.03;3.00;;;4.00;99.90;;;;;;5001502;28;20453;-68
2024/03/17 06:10:30;;;;;;;6.77;3.00;;;4.00;99.90;;;;;;4986182;28;21129;-68
2024/03/17 06:12:57;;;;;;;7.23;2.80;;;4.00;99.90;;;;;;5002662;28;20479;-68
2024/03/17 06:15:24;;;;;;;5.23;2.83;;;4.00;99.90;;;;;;5000817;28;20469;-68
2024/03/17 06:17:52;;;;;;;4.43;3.40;;;4.00;99.90;;;;;;5004245;28;21071;-68
2024/03/17 06:20:21;;;;;;;6.57;4.13;;;4.00;99.90;;;;;;5001676;28;20848;-68
2024/03/17 06:22:48;;;;;;;5.03;3.30;;;4.00;99.90;;;;;;5002789;28;20480;-68
2024/03/17 06:25:16;;;;;;;6.60;3.27;;;4.00;99.90;;;;;;4998977;28;20998;-68
2024/03/17 06:27:43;;;;;;;7.53;3.80;;;4.00;99.90;;;;;;5000273;28;20476;-68
2024/03/17 06:30:14;;;;;;;6.23;3.50;;;4.00;99.90;;;;;;5001290;28;20480;-68
2024/03/17 06:32:42;;;;;;;6.00;3.20;;;4.00;99.90;;;;;;5004109;28;20460;-68
2024/03/17 06:35:09;;;;;;;7.90;4.10;;;4.00;99.90;;;;;;5002703;28;20469;-68
2024/03/17 06:37:38;;;;;;;4.30;3.10;;;4.00;99.90;;;;;;4999624;28;20496;-68
2024/03/17 06:40:06;;;;;;;9.63;3.60;;;4.10;99.90;;;;;;5001406;28;20997;-68
2024/03/17 06:42:33;;;;;;;10.07;3.83;;;4.10;99.90;;;;;;5003826;28;20472;-68
2024/03/17 06:45:00;;;;;;;6.83;3.67;;;4.20;99.90;;;;;;5002937;28;20994;-68
2024/03/17 06:47:27;;;;;;;5.63;3.47;;;4.20;99.90;;;;;;5001214;28;20471;-68
2024/03/17 06:49:55;;;;;;;8.07;3.83;;;4.20;99.90;;;;;;5000402;28;20464;-68
2024/03/17 06:52:22;;;;;;;9.60;4.40;;;4.30;99.90;;;;;;5000232;28;20480;-68
2024/03/17 06:54:50;;;;;;;8.17;3.80;;;4.30;99.90;;;;;;5002877;28;20475;-68
2024/03/17 06:57:17;;;;;;;9.27;4.17;;;4.40;99.90;;;;;;5001470;28;20852;-68
2024/03/17 06:59:45;;;;;;;11.30;4.70;;;4.40;99.90;;;;;;5004837;28;20480;-68
2024/03/17 07:02:17;;;;;;;7.43;3.40;;;4.40;99.90;;;;;;5000543;28;20576;-68
2024/03/17 07:04:43;;;;;;;7.53;4.30;;;4.50;99.90;;;;;;5004532;28;20535;-68
2024/03/17 07:07:10;;;;;;;9.30;4.17;;;4.50;99.90;;;;;;5003337;28;20468;-68
2024/03/17 07:09:38;;;;;;;7.90;3.40;;;4.60;99.90;;;;;;5006412;28;20472;-68
2024/03/17 07:12:07;;;;;;;10.90;3.90;;;4.70;99.90;;;;;;5002863;28;20560;-68
2024/03/17 07:14:34;;;;;;;7.50;3.60;;;4.70;99.90;;;;;;5004322;28;20483;-68
2024/03/17 07:17:01;;;;;;;7.00;3.77;;;4.70;99.90;;;;;;5000552;28;20488;-68
2024/03/17 07:19:30;;;;;;;8.47;3.57;;;4.70;99.90;;;;;;5003945;28;20854;-67
2024/03/17 07:21:57;;;;;;;7.07;3.50;;;4.80;99.90;;;;;;5003075;28;21273;-68
2024/03/17 07:24:24;;;;;;;8.03;3.40;;;4.80;99.90;;;;;;5003423;28;20472;-68
2024/03/17 07:26:51;;;;;;;7.30;3.37;;;4.90;99.90;;;;;;5007444;28;20464;-68
2024/03/17 07:29:20;;;;;;;8.00;3.00;;;4.90;99.90;;;;;;5005098;28;20480;-68
2024/03/17 07:31:47;;;;;;;9.90;3.00;;;4.90;99.90;;;;;;4986262;28;20500;-68
2024/03/17 07:34:14;;;;;;;8.93;2.50;;;5.00;99.90;;;;;;4986946;28;20472;-68
2024/03/17 07:36:41;;;;;;;9.63;2.70;;;5.00;99.90;;;;;;4985523;28;21502;-68
2024/03/17 07:39:08;;;;;;;7.80;2.30;;;5.10;99.90;;;;;;4986381;28;20461;-68
2024/03/17 07:41:36;;;;;;;5.53;2.20;;;5.10;99.90;;;;;;4986606;28;20911;-68
2024/03/17 07:44:03;;;;;;;6.13;3.23;;;5.20;99.90;;;;;;4988988;28;20864;-68
2024/03/17 07:46:31;;;;;;;10.03;2.87;;;5.20;99.90;;;;;;4986838;28;20476;-68
2024/03/17 07:48:58;;;;;;;5.07;2.40;;;5.30;99.90;;;;;;4986259;28;20486;-68
2024/03/17 07:51:25;;;;;;;6.70;2.37;;;5.30;99.90;;;;;;4986567;28;21043;-68
2024/03/17 07:53:52;;;;;;;4.37;1.97;;;5.30;99.90;;;;;;4987160;28;20465;-67
2024/03/17 07:56:20;;;;;;;5.57;2.10;;;5.30;99.90;;;;;;4987582;28;20469;-67
2024/03/17 07:58:50;;;;;;;2.60;1.47;;;5.40;99.90;;;;;;4981401;28;20473;-67
2024/03/17 08:01:17;;;;;;;13.87;3.63;;;5.40;99.90;;;;;;4984893;28;20500;-67
2024/03/17 08:03:49;;;;;;;5.00;2.10;;;5.50;99.90;;;;;;4984298;28;20477;-67
2024/03/17 08:06:16;;;;;;;4.80;1.80;;;5.50;99.90;;;;;;4983663;28;20485;-67
2024/03/17 08:08:43;;;;;;;10.67;1.90;;;5.60;99.90;;;;;;4984323;28;20469;-67
2024/03/17 08:11:10;;;;;;;5.73;1.90;;;5.60;99.90;;;;;;4984488;28;20527;-67
2024/03/17 08:13:37;;;;;;;4.77;1.87;;;5.70;99.90;;;;;;4982419;28;20465;-67
2024/03/17 08:16:06;;;;;;;6.13;1.50;;;5.70;99.90;;;;;;4982866;28;20474;-66
2024/03/17 08:18:34;;;;;;;8.57;2.00;;;5.80;99.90;;;;;;4979727;28;20489;-67
2024/03/17 08:21:06;;;;;;;6.20;1.60;;;5.90;99.90;;;;;;4987598;28;21128;-71
2024/03/17 08:23:35;;;;;;;6.23;2.60;;;5.90;99.90;;;;;;4988968;28;20527;-71
2024/03/17 08:26:03;;;;;;;3.97;1.70;;;5.90;99.90;;;;;;4982790;28;20481;-67
2024/03/17 08:28:30;;;;;;;3.93;1.93;;;6.00;99.90;;;;;;4986004;28;20468;-67
2024/03/17 08:30:58;;;;;;;3.90;1.53;;;6.00;99.90;;;;;;4988988;28;20501;-66
2024/03/17 08:33:26;;;;;;;6.80;1.40;;;6.10;99.90;;;;;;4994423;28;20485;-67
2024/03/17 08:35:54;;;;;;;4.70;1.87;;;6.10;99.90;;;;;;4992320;28;20844;-67
2024/03/17 08:38:24;;;;;;;3.13;1.27;;;6.20;99.90;;;;;;4993249;28;21106;-67
2024/03/17 08:40:51;;;;;;;5.47;1.43;;;6.30;99.90;;;;;;5002468;28;21012;-67
2024/03/17 08:43:18;;;;;;;6.77;1.63;;;6.30;99.90;;;;;;5001997;28;20472;-67
2024/03/17 08:45:45;;;;;;;6.03;1.97;;;6.30;99.90;;;;;;5002482;28;20468;-67
2024/03/17 08:48:12;;;;;;;2.90;1.47;;;6.40;99.90;;;;;;5002395;28;20469;-67
2024/03/17 08:50:40;;;;;;;6.50;1.70;;;6.40;99.90;;;;;;5001456;28;20496;-67
2024/03/17 08:53:07;;;;;;;4.30;1.50;;;6.50;99.90;;;;;;4999582;28;20483;-67
2024/03/17 08:55:36;;;;;;;7.27;1.47;;;6.50;99.90;;;;;;5001949;28;20468;-67
2024/03/17 08:58:03;;;;;;;3.63;1.30;;;6.60;99.90;;;;;;4999391;28;20962;-67
2024/03/17 09:00:32;;;;;;;9.07;1.67;;;6.70;99.90;;;;;;5000282;28;20539;-67
2024/03/17 09:02:59;;;;;;;5.57;1.70;;;6.80;99.90;;;;;;5003752;28;20806;-67
2024/03/17 09:05:26;;;;;;;5.43;2.80;;;6.80;99.90;;;;;;5001259;28;20487;-65
2024/03/17 09:07:53;;;;;;;6.27;1.80;;;6.90;99.90;;;;;;5002736;28;20468;-65
2024/03/17 09:10:20;;;;;;;5.90;1.60;;;7.00;99.90;;;;;;5004803;28;20472;-65
2024/03/17 09:12:49;;;;;;;4.33;1.67;;;7.00;99.90;;;;;;5002383;28;20495;-65
2024/03/17 09:15:16;;;;;;;4.63;1.50;;;7.10;99.90;;;;;;5003055;28;20475;-65
2024/03/17 09:17:44;;;;;;;6.00;1.50;;;7.10;99.90;;;;;;4998656;28;20578;-65
2024/03/17 09:20:14;;;;;;;8.70;2.13;;;7.20;99.90;;;;;;4997380;28;20887;-64
2024/03/17 09:22:41;;;;;;;5.00;1.80;;;7.20;99.90;;;;;;5000749;28;21172;-64
2024/03/17 09:25:09;;;;;;;3.47;1.07;;;7.30;99.90;;;;;;5000839;28;20476;-63
2024/03/17 09:27:37;;;;;;;3.37;1.50;;;7.40;99.90;;;;;;5001432;28;20526;-63
2024/03/17 09:30:09;;;;;;;2.40;1.00;;;7.40;99.90;;;;;;4997673;28;20495;-63
2024/03/17 09:32:36;;;;;;;5.47;1.77;;;7.50;99.90;;;;;;5002891;28;20535;-64
2024/03/17 09:35:03;;;;;;;4.60;1.20;;;7.60;99.90;;;;;;5003152;28;20506;-64
2024/03/17 09:37:31;;;;;;;3.40;1.33;;;7.70;99.90;;;;;;5001539;28;20496;-64
2024/03/17 09:39:59;;;;;;;3.93;2.00;;;7.70;99.90;;;;;;5001488;28;20843;-64
2024/03/17 09:42:27;;;;;;;5.10;1.70;;;7.80;99.90;;;;;;5004369;28;21215;-64
2024/03/17 09:44:56;;;;;;;7.63;1.83;;;8.00;99.90;;;;;;5000725;28;20510;-64
2024/03/17 09:47:26;;;;;;;3.20;1.20;;;8.00;99.90;;;;;;5005817;28;20861;-64
2024/03/17 09:49:54;;;;;;;5.90;1.50;;;8.10;99.90;;;;;;5003046;28;20488;-64
2024/03/17 09:52:22;;;;;;;4.87;1.73;;;8.10;99.90;;;;;;5003493;28;20488;-64
2024/03/17 09:54:56;;;;;;;4.67;1.37;;;8.20;99.90;;;;;;5003123;28;21463;-64
2024/03/17 09:57:25;;;;;;;3.90;1.70;;;8.20;99.90;;;;;;5002100;28;20500;-64
2024/03/17 09:59:53;;;;;;;7.10;1.63;;;8.20;99.90;;;;;;4991870;28;21264;-64
2024/03/17 10:02:21;;;;;;;6.90;1.80;;;8.20;99.90;;;;;;4999452;28;20511;-64
2024/03/17 10:04:50;;;;;;;3.50;1.70;;;8.30;99.90;;;;;;4989204;28;20476;-63
2024/03/17 10:07:17;;;;;;;9.57;2.60;;;8.30;99.90;;;;;;4995694;28;20472;-63
2024/03/17 10:09:45;;;;;;;7.63;1.63;;;8.40;99.90;;;;;;4996415;28;20514;-65
2024/03/17 10:12:27;;;;;;;5.30;1.50;;;8.40;99.90;;;;;;4999052;28;20493;-65
2024/03/17 10:15:02;;;;;;;6.93;2.70;;;8.50;99.90;;;;;;4996645;28;20468;-65
2024/03/17 10:17:33;;;;;;;10.00;1.97;;;8.60;99.90;;;;;;5000209;28;21001;-65
2024/03/17 10:20:16;;;;;;;8.33;1.80;;;8.70;99.90;;;;;;4994894;28;20862;-64
2024/03/17 10:23:01;;;;;;;4.93;1.50;;;8.70;99.90;;;;;;4992785;28;20529;-65
2024/03/17 10:25:29;;;;;;;6.10;2.00;;;8.70;99.90;;;;;;5011955;28;20480;-64
2024/03/17 10:27:57;;;;;;;4.10;1.30;;;8.70;99.90;;;;;;4998622;28;20543;-65
2024/03/17 10:30:26;;;;;;;3.50;1.93;;;8.70;99.90;;;;;;4991450;28;20485;-65
2024/03/17 10:32:58;;;;;;;5.40;2.27;;;8.70;99.90;;;;;;4994722;28;20599;-64
2024/03/17 10:35:31;;;;;;;3.70;1.70;;;8.80;99.90;;;;;;4994508;28;20867;-64
2024/03/17 10:38:00;;;;;;;5.07;1.90;;;8.90;99.90;;;;;;4999176;28;20547;-65
2024/03/17 10:40:29;;;;;;;4.67;1.70;;;9.10;99.90;;;;;;5002860;28;20542;-65
2024/03/17 10:42:56;;;;;;;5.30;1.97;;;9.20;99.90;;;;;;5000960;28;20984;-65
2024/03/17 10:45:24;;;;;;;6.37;1.67;;;9.40;99.90;;;;;;4996202;28;20975;-65
2024/03/17 10:47:52;;;;;;;5.23;1.60;;;9.50;99.90;;;;;;4995946;28;20483;-65
2024/03/17 10:50:21;;;;;;;6.80;2.30;;;9.70;99.90;;;;;;4996886;28;21043;-65
2024/03/17 10:52:51;;;;;;;6.23;1.87;;;9.70;99.90;;;;;;4999382;28;20476;-65
2024/03/17 10:55:23;;;;;;;3.20;1.30;;;9.80;99.90;;;;;;5003878;28;20542;-65
2024/03/17 10:57:51;;;;;;;6.00;1.73;;;9.90;99.90;;;;;;4997986;28;20967;-64
2024/03/17 11:00:21;;;;;;;5.13;1.93;;;9.90;99.90;;;;;;4995978;28;20513;-64
2024/03/17 11:02:50;;;;;;;4.20;1.60;;;10.00;99.90;;;;;;5011203;28;20479;-64
2024/03/17 11:05:21;;;;;;;7.17;1.90;;;10.10;99.90;;;;;;4999662;28;20855;-64
2024/03/17 11:07:54;;;;;;;4.10;1.83;;;10.10;99.90;;;;;;4995856;28;20460;-65
2024/03/17 11:10:27;;;;;;;3.83;1.50;;;10.20;99.90;;;;;;4999322;28;20492;-64
2024/03/17 11:12:56;;;;;;;5.93;1.60;;;10.30;99.90;;;;;;4999817;28;20489;-67
2024/03/17 11:15:51;;;;;;;5.17;1.90;;;10.30;99.90;;;;;;4993610;28;20472;-66
2024/03/17 11:18:36;;;;;;;3.60;1.40;;;10.40;99.90;;;;;;4991510;28;20488;-66
2024/03/17 11:21:10;;;;;;;4.23;1.57;;;10.40;99.90;;;;;;4997494;28;21024;-68
2024/03/17 11:23:39;;;;;;;5.33;1.70;;;10.60;99.90;;;;;;4992840;28;20467;-66
2024/03/17 11:26:08;;;;;;;3.67;1.20;;;10.70;99.90;;;;;;4988289;28;20480;-66
2024/03/17 11:28:49;;;;;;;3.03;1.40;;;10.90;99.90;;;;;;4997533;28;20471;-65
2024/03/17 11:31:43;;;;;;;6.17;1.33;;;11.00;99.90;;;;;;4994070;28;20488;-66
2024/03/17 11:34:33;;;;;;;4.60;1.57;;;11.10;99.90;;;;;;4998464;28;20500;-66
2024/03/17 11:37:03;;;;;;;2.97;1.20;;;11.10;99.90;;;;;;4999671;28;20484;-65
2024/03/17 11:39:55;;;;;;;3.97;1.23;;;11.10;99.90;;;;;;4994507;28;20487;-65
2024/03/17 11:42:24;;;;;;;6.53;2.53;;;11.20;97.60;;;;;;4996743;28;20496;-63
2024/03/17 11:45:02;;;;;;;5.10;1.40;;;11.20;99.90;;;;;;4998845;28;20487;-64
2024/03/17 11:47:40;;;;;;;2.90;1.40;;;11.30;99.90;;;;;;4994353;28;20482;-64
2024/03/17 11:50:10;;;;;;;4.17;1.87;;;11.40;99.90;;;;;;4995730;28;20542;-64
2024/03/17 11:52:37;;;;;;;5.03;1.37;;;11.40;99.90;;;;;;5000587;28;20522;-64
2024/03/17 11:55:05;;;;;;;5.40;1.73;;;11.60;99.30;;;;;;5003357;28;21030;-64
2024/03/17 11:57:32;;;;;;;5.30;1.80;;;11.50;97.20;;;;;;5002821;28;20480;-64
2024/03/17 11:59:59;;;;;;;3.80;1.10;;;11.60;98.60;;;;;;4992225;28;20554;-65
2024/03/17 12:02:27;;;;;;;3.57;1.50;;;11.70;99.90;;;;;;4991038;28;20492;-63
2024/03/17 12:05:00;;;;;;;3.93;1.60;;;11.80;95.50;;;;;;4992103;28;20465;-64
2024/03/17 12:07:30;;;;;;;3.23;1.60;;;11.70;97.60;;;;;;4996710;28;20921;-65
2024/03/17 12:09:57;;;;;;;4.90;1.50;;;11.80;97.10;;;;;;4995090;28;20508;-66
2024/03/17 12:12:34;;;;;;;5.47;1.60;;;11.90;97.10;;;;;;4997103;28;20523;-67
2024/03/17 12:15:01;;;;;;;4.10;1.67;;;12.10;95.60;;;;;;4996128;28;20482;-65
2024/03/17 12:17:28;;;;;;;2.00;1.27;;;12.30;99.30;;;;;;4999405;28;20468;-65
2024/03/17 12:19:55;;;;;;;4.70;1.57;;;12.50;93.30;;;;;;4995075;28;20492;-65
2024/03/17 12:22:25;;;;;;;3.53;1.40;;;12.70;93.40;;;;;;5000185;28;20507;-66
2024/03/17 12:24:53;;;;;;;5.60;1.80;;;12.90;88.80;;;;;;5000846;28;20957;-66
2024/03/17 12:27:21;;;;;;;5.10;1.73;;;13.00;94.00;;;;;;4996289;28;20623;-66
2024/03/17 12:29:50;;;;;;;1.60;1.27;;;13.20;93.40;;;;;;4996560;28;20925;-65
2024/03/17 12:32:19;;;;;;;6.60;1.87;;;13.40;77.60;;;;;;4998434;28;20492;-64
2024/03/17 12:34:46;;;;;;;3.60;1.40;;;13.60;90.00;;;;;;4998219;28;20976;-65
2024/03/17 12:37:19;;;;;;;5.77;1.40;;;13.80;86.90;;;;;;4995521;28;20965;-64
2024/03/17 12:39:45;;;;;;;5.43;1.63;;;14.10;87.40;;;;;;4996353;28;20484;-65
2024/03/17 12:42:14;;;;;;;5.67;1.30;;;14.50;81.60;;;;;;4995942;28;20492;-64
2024/03/17 12:44:47;;;;;;;2.63;1.23;;;15.00;81.30;;;;;;4999577;28;20483;-65
2024/03/17 12:47:17;;;;;;;3.67;1.70;;;15.50;73.70;;;;;;4996569;28;20487;-65
2024/03/17 12:49:47;;;;;;;2.70;1.10;;;16.30;67.10;;;;;;5001551;28;20476;-65
2024/03/17 12:52:21;;;;;;;5.40;1.60;;;17.10;48.70;;;;;;4997485;28;20710;-65
2024/03/17 13:00:31;;;;;;;4.50;1.30;;;18.50;50.30;;;;;;4993361;28;20483;-65
2024/03/17 13:00:34;;;;;;;3.63;1.40;;;22.10;41.90;;;;;;4983105;28;20488;-66
2024/03/17 13:03:04;;;;;;;5.17;1.80;;;23.40;34.20;;;;;;4990072;28;20479;-66
2024/03/17 13:05:32;;;;;;;4.30;1.77;;;24.40;30.00;;;;;;4994740;28;20985;-65